createdAt,value
2023-03-26T00:00:58.425Z,78.4
2023-03-26T00:01:59.597Z,78.4
2023-03-26T00:03:00.922Z,78.4
2023-03-26T00:04:02.081Z,78.4
2023-03-26T00:05:03.442Z,78.4
2023-03-26T00:06:04.669Z,78.4
2023-03-26T00:07:05.855Z,78.3
2023-03-26T00:08:07.013Z,78.3
2023-03-26T00:09:08.186Z,78.3
2023-03-26T00:10:09.357Z,78.2
2023-03-26T00:11:10.512Z,78.1
2023-03-26T00:12:11.674Z,78
2023-03-26T00:13:12.840Z,77.9
2023-03-26T00:14:14.534Z,77.9
2023-03-26T00:15:15.699Z,77.9
2023-03-26T00:16:16.900Z,77.8
2023-03-26T00:17:18.050Z,77.8
2023-03-26T00:18:19.213Z,77.9
2023-03-26T00:19:20.378Z,77.8
2023-03-26T00:20:21.576Z,77.8
2023-03-26T00:21:22.722Z,77.7
2023-03-26T00:22:23.712Z,77.7
2023-03-26T00:23:25.041Z,77.6
2023-03-26T00:24:26.206Z,77.6
2023-03-26T00:25:27.372Z,77.6
2023-03-26T00:26:28.536Z,77.6
2023-03-26T00:27:29.698Z,77.6
2023-03-26T00:28:30.868Z,77.5
2023-03-26T00:29:32.035Z,77.5
2023-03-26T00:30:33.247Z,77.5
2023-03-26T00:31:34.189Z,77.5
2023-03-26T00:32:35.543Z,77.5
2023-03-26T00:33:36.691Z,77.5
2023-03-26T00:34:37.853Z,77.5
2023-03-26T00:35:39.101Z,77.5
2023-03-26T00:36:40.049Z,77.5
2023-03-26T00:37:41.212Z,77.5
2023-03-26T00:38:42.219Z,77.5
2023-03-26T00:39:43.385Z,77.6
2023-03-26T00:40:44.554Z,77.6
2023-03-26T00:41:45.723Z,77.6
2023-03-26T00:42:46.534Z,77.6
2023-03-26T00:43:47.703Z,77.6
2023-03-26T00:44:49.015Z,77.5
2023-03-26T00:45:50.193Z,77.5
2023-03-26T00:46:51.152Z,77.5
2023-03-26T00:47:52.362Z,77.5
2023-03-26T00:48:53.401Z,77.4
2023-03-26T00:49:54.569Z,77.4
2023-03-26T00:50:55.761Z,77.5
2023-03-26T00:51:56.899Z,77.5
2023-03-26T00:52:58.088Z,77.5
2023-03-26T00:53:59.226Z,77.5
2023-03-26T00:55:00.389Z,77.5
2023-03-26T00:56:01.554Z,77.5
2023-03-26T00:57:02.715Z,77.5
2023-03-26T00:58:03.863Z,77.5
2023-03-26T00:59:04.842Z,77.6
2023-03-26T01:00:05.990Z,77.6
2023-03-26T01:01:07.170Z,77.6
2023-03-26T01:02:08.320Z,77.7
2023-03-26T01:03:09.823Z,77.8
2023-03-26T01:04:11.365Z,77.8
2023-03-26T01:05:12.643Z,77.9
2023-03-26T01:06:13.887Z,78
2023-03-26T01:07:15.016Z,78.1
2023-03-26T01:08:16.185Z,78.2
2023-03-26T01:09:17.373Z,78.2
2023-03-26T01:10:18.526Z,78.3
2023-03-26T01:11:19.689Z,78.4
2023-03-26T01:12:20.662Z,78.5
2023-03-26T01:13:21.825Z,78.7
2023-03-26T01:14:22.988Z,78.8
2023-03-26T01:15:24.171Z,78.9
2023-03-26T01:16:25.636Z,79
2023-03-26T01:17:26.830Z,79
2023-03-26T01:18:27.784Z,79
2023-03-26T01:19:28.951Z,79.1
2023-03-26T01:20:29.910Z,79.1
2023-03-26T01:21:31.187Z,79.2
2023-03-26T01:22:32.327Z,79.2
2023-03-26T01:23:33.492Z,79.3
2023-03-26T01:24:34.461Z,79.3
2023-03-26T01:25:35.637Z,79.4
2023-03-26T01:26:36.791Z,79.4
2023-03-26T01:27:37.954Z,79.4
2023-03-26T01:28:39.118Z,79.4
2023-03-26T01:29:40.282Z,79.4
2023-03-26T01:30:41.252Z,79.4
2023-03-26T01:31:42.420Z,79.5
2023-03-26T01:32:43.952Z,79.5
2023-03-26T01:33:45.855Z,79.5
2023-03-26T01:34:47.128Z,79.5
2023-03-26T01:35:48.484Z,79.6
2023-03-26T01:36:49.719Z,79.6
2023-03-26T01:37:50.861Z,79.7
2023-03-26T01:38:51.675Z,79.7
2023-03-26T01:39:52.845Z,79.7
2023-03-26T01:40:53.806Z,79.7
2023-03-26T01:41:55.026Z,79.8
2023-03-26T01:42:56.195Z,79.7
2023-03-26T01:43:57.164Z,79.7
2023-03-26T01:44:58.325Z,79.7
2023-03-26T01:45:59.493Z,79.7
2023-03-26T01:47:00.739Z,79.6
2023-03-26T01:48:02.244Z,79.6
2023-03-26T01:49:03.410Z,79.6
2023-03-26T01:50:04.366Z,79.6
2023-03-26T01:51:05.341Z,79.6
2023-03-26T01:52:06.529Z,79.6
2023-03-26T01:53:07.486Z,79.6
2023-03-26T01:54:08.637Z,79.5
2023-03-26T01:55:09.805Z,79.5
2023-03-26T01:56:10.970Z,79.6
2023-03-26T01:57:12.317Z,79.6
2023-03-26T01:58:13.605Z,79.6
2023-03-26T01:59:14.775Z,79.7
2023-03-26T02:00:15.969Z,79.7
2023-03-26T02:01:17.284Z,79.7
2023-03-26T02:02:18.605Z,79.7
2023-03-26T02:03:20.465Z,79.7
2023-03-26T02:04:21.733Z,79.8
2023-03-26T02:05:22.906Z,79.8
2023-03-26T02:06:24.067Z,79.9
2023-03-26T02:07:25.192Z,79.9
2023-03-26T02:08:26.577Z,79.9
2023-03-26T02:09:27.742Z,79.9
2023-03-26T02:10:28.921Z,80
2023-03-26T02:11:36.663Z,80.1
2023-03-26T02:12:37.840Z,80.2
2023-03-26T02:13:38.992Z,80.2
2023-03-26T02:14:40.159Z,80.3
2023-03-26T02:15:41.330Z,80.4
2023-03-26T02:16:42.322Z,80.5
2023-03-26T02:17:43.145Z,80.6
2023-03-26T02:18:44.305Z,80.6
2023-03-26T02:19:45.286Z,80.7
2023-03-26T02:20:46.444Z,80.9
2023-03-26T02:21:47.606Z,81
2023-03-26T02:22:48.797Z,81.3
2023-03-26T02:23:49.936Z,81.5
2023-03-26T02:24:51.096Z,81.7
2023-03-26T02:25:53.316Z,81.9
2023-03-26T02:26:54.657Z,82.1
2023-03-26T02:27:55.824Z,82.3
2023-03-26T02:28:59.202Z,82.5
2023-03-26T02:30:00.171Z,82.6
2023-03-26T02:31:01.339Z,82.9
2023-03-26T02:32:02.763Z,83
2023-03-26T02:33:04.081Z,83.1
2023-03-26T02:34:05.225Z,83.2
2023-03-26T02:35:06.380Z,83.3
2023-03-26T02:36:07.831Z,83.3
2023-03-26T02:37:09.068Z,83.4
2023-03-26T02:38:10.270Z,83.4
2023-03-26T02:39:11.408Z,83.4
2023-03-26T02:40:12.661Z,83.5
2023-03-26T02:41:13.821Z,83.5
2023-03-26T02:42:14.988Z,83.6
2023-03-26T02:43:16.168Z,83.6
2023-03-26T02:44:17.122Z,83.6
2023-03-26T02:45:18.287Z,83.6
2023-03-26T02:46:19.727Z,83.6
2023-03-26T02:47:20.872Z,83.6
2023-03-26T02:48:22.091Z,83.7
2023-03-26T02:49:23.282Z,83.7
2023-03-26T02:50:24.255Z,83.7
2023-03-26T02:51:25.414Z,83.7
2023-03-26T02:52:26.578Z,83.7
2023-03-26T02:53:27.769Z,83.8
2023-03-26T02:54:28.907Z,83.8
2023-03-26T02:55:30.070Z,83.8
2023-03-26T02:56:31.362Z,83.8
2023-03-26T02:57:32.515Z,83.9
2023-03-26T02:58:33.696Z,83.8
2023-03-26T02:59:34.867Z,83.8
2023-03-26T03:00:35.823Z,83.8
2023-03-26T03:01:37.053Z,83.9
2023-03-26T03:02:38.330Z,83.9
2023-03-26T03:03:39.250Z,83.9
2023-03-26T03:04:40.419Z,84
2023-03-26T03:05:41.385Z,84
2023-03-26T03:06:42.556Z,84
2023-03-26T03:07:44.112Z,84
2023-03-26T03:08:45.270Z,84
2023-03-26T03:09:46.211Z,84.1
2023-03-26T03:10:47.220Z,84.1
2023-03-26T03:11:48.395Z,84.1
2023-03-26T03:12:49.548Z,84.2
2023-03-26T03:13:50.732Z,84.2
2023-03-26T03:14:51.883Z,84.2
2023-03-26T03:15:53.690Z,84.2
2023-03-26T03:16:54.923Z,84.2
2023-03-26T03:17:56.212Z,84.2
2023-03-26T03:18:58.946Z,84.2
2023-03-26T03:20:00.147Z,84.2
2023-03-26T03:21:01.283Z,84.1
2023-03-26T03:22:02.443Z,84.1
2023-03-26T03:23:03.617Z,84.1
2023-03-26T03:24:04.414Z,84.1
2023-03-26T03:25:05.562Z,84.1
2023-03-26T03:26:06.730Z,84
2023-03-26T03:27:07.888Z,84
2023-03-26T03:28:09.052Z,84
2023-03-26T03:29:10.217Z,83.9
2023-03-26T03:30:11.392Z,83.9
2023-03-26T03:31:12.790Z,83.8
2023-03-26T03:32:13.950Z,83.8
2023-03-26T03:33:15.096Z,83.8
2023-03-26T03:34:16.263Z,83.7
2023-03-26T03:35:17.475Z,83.7
2023-03-26T03:36:22.299Z,83.7
2023-03-26T03:37:23.455Z,83.7
2023-03-26T03:38:24.425Z,83.7
2023-03-26T03:39:25.633Z,83.7
2023-03-26T03:40:26.773Z,83.6
2023-03-26T03:41:27.741Z,83.6
2023-03-26T03:42:28.751Z,83.5
2023-03-26T03:43:29.926Z,83.5
2023-03-26T03:44:31.284Z,83.4
2023-03-26T03:45:32.446Z,83.4
2023-03-26T03:46:33.671Z,83.3
2023-03-26T03:47:34.993Z,83.3
2023-03-26T03:48:36.084Z,83.2
2023-03-26T03:49:37.247Z,83.2
2023-03-26T03:50:38.419Z,83.2
2023-03-26T03:51:47.589Z,83.1
2023-03-26T03:52:48.759Z,83
2023-03-26T03:53:49.916Z,83
2023-03-26T03:54:51.111Z,82.9
2023-03-26T03:55:52.506Z,82.9
2023-03-26T03:56:53.906Z,82.9
2023-03-26T03:57:55.098Z,82.8
2023-03-26T03:58:56.269Z,82.8
2023-03-26T03:59:57.432Z,82.8
2023-03-26T04:00:58.397Z,82.7
2023-03-26T04:01:59.579Z,82.7
2023-03-26T04:03:00.959Z,82.7
2023-03-26T04:04:02.513Z,82.7
2023-03-26T04:05:03.764Z,82.7
2023-03-26T04:06:04.725Z,82.7
2023-03-26T04:07:05.883Z,82.7
2023-03-26T04:08:07.051Z,82.6
2023-03-26T04:09:08.223Z,82.6
2023-03-26T04:10:09.477Z,82.6
2023-03-26T04:11:10.418Z,82.7
2023-03-26T04:12:11.583Z,82.7
2023-03-26T04:13:12.756Z,82.7
2023-03-26T04:14:13.915Z,82.7
2023-03-26T04:15:15.076Z,82.7
2023-03-26T04:16:16.406Z,82.7
2023-03-26T04:17:17.667Z,82.7
2023-03-26T04:18:18.835Z,82.7
2023-03-26T04:19:19.988Z,82.7
2023-03-26T04:20:21.157Z,82.7
2023-03-26T04:21:22.319Z,82.6
2023-03-26T04:22:23.495Z,82.6
2023-03-26T04:23:24.858Z,82.6
2023-03-26T04:24:26.026Z,82.6
2023-03-26T04:25:27.223Z,82.5
2023-03-26T04:26:28.160Z,82.5
2023-03-26T04:27:29.327Z,82.5
2023-03-26T04:28:30.293Z,82.4
2023-03-26T04:29:31.462Z,82.4
2023-03-26T04:30:32.626Z,82.4
2023-03-26T04:31:33.712Z,82.4
2023-03-26T04:32:34.740Z,82.4
2023-03-26T04:33:35.892Z,82.3
2023-03-26T04:34:37.058Z,82.3
2023-03-26T04:35:38.515Z,82.4
2023-03-26T04:36:39.675Z,82.4
2023-03-26T04:37:40.964Z,82.4
2023-03-26T04:38:42.001Z,82.4
2023-03-26T04:39:43.168Z,82.4
2023-03-26T04:40:44.357Z,82.4
2023-03-26T04:41:45.502Z,82.4
2023-03-26T04:42:46.847Z,82.5
2023-03-26T04:43:47.982Z,82.5
2023-03-26T04:44:49.141Z,82.5
2023-03-26T04:45:50.311Z,82.5
2023-03-26T04:46:51.618Z,82.5
2023-03-26T04:47:53.078Z,82.5
2023-03-26T04:48:53.833Z,82.5
2023-03-26T04:49:54.846Z,82.6
2023-03-26T04:50:56.007Z,82.6
2023-03-26T04:51:57.176Z,82.6
2023-03-26T04:52:58.337Z,82.6
2023-03-26T04:53:59.539Z,82.6
2023-03-26T04:55:00.668Z,82.6
2023-03-26T04:56:01.715Z,82.5
2023-03-26T04:57:02.683Z,82.5
2023-03-26T04:58:03.944Z,82.5
2023-03-26T04:59:05.092Z,82.6
2023-03-26T05:00:06.256Z,82.6
2023-03-26T05:01:11.472Z,82.6
2023-03-26T05:02:12.610Z,82.6
2023-03-26T05:03:13.617Z,82.6
2023-03-26T05:04:14.929Z,82.6
2023-03-26T05:05:16.046Z,82.6
2023-03-26T05:06:17.213Z,82.5
2023-03-26T05:07:17.986Z,82.5
2023-03-26T05:08:19.155Z,82.5
2023-03-26T05:09:20.310Z,82.5
2023-03-26T05:10:21.491Z,82.5
2023-03-26T05:11:22.684Z,82.5
2023-03-26T05:12:23.828Z,82.5
2023-03-26T05:13:24.989Z,82.5
2023-03-26T05:14:26.151Z,82.5
2023-03-26T05:15:27.313Z,82.4
2023-03-26T05:16:28.499Z,82.4
2023-03-26T05:17:29.680Z,82.3
2023-03-26T05:18:34.363Z,82.3
2023-03-26T05:19:35.332Z,82.2
2023-03-26T05:20:36.390Z,82.2
2023-03-26T05:21:37.568Z,82.1
2023-03-26T05:22:39.007Z,82.1
2023-03-26T05:23:40.162Z,82
2023-03-26T05:24:41.328Z,82
2023-03-26T05:25:42.491Z,81.9
2023-03-26T05:26:43.799Z,81.9
2023-03-26T05:27:44.965Z,81.8
2023-03-26T05:28:45.947Z,81.8
2023-03-26T05:29:46.957Z,81.7
2023-03-26T05:30:48.083Z,81.7
2023-03-26T05:31:49.245Z,81.7
2023-03-26T05:32:50.808Z,81.6
2023-03-26T05:33:52.017Z,81.6
2023-03-26T05:34:53.024Z,81.6
2023-03-26T05:35:54.305Z,81.5
2023-03-26T05:36:55.265Z,81.5
2023-03-26T05:37:56.432Z,81.5
2023-03-26T05:38:57.593Z,81.4
2023-03-26T05:39:58.766Z,81.4
2023-03-26T05:40:59.730Z,81.4
2023-03-26T05:42:00.722Z,81.4
2023-03-26T05:43:01.874Z,81.4
2023-03-26T05:44:03.032Z,81.3
2023-03-26T05:45:04.198Z,81.3
2023-03-26T05:46:05.570Z,81.3
2023-03-26T05:47:06.528Z,81.2
2023-03-26T05:48:07.504Z,81.2
2023-03-26T05:49:08.459Z,81.2
2023-03-26T05:50:09.439Z,81.1
2023-03-26T05:51:10.598Z,81.1
2023-03-26T05:52:11.764Z,81.1
2023-03-26T05:53:12.926Z,81.1
2023-03-26T05:54:13.896Z,81.1
2023-03-26T05:55:15.058Z,81.1
2023-03-26T05:56:16.238Z,81.1
2023-03-26T05:57:17.571Z,81.1
2023-03-26T05:58:18.706Z,81.1
2023-03-26T05:59:19.869Z,81.1
2023-03-26T06:00:23.479Z,81
2023-03-26T06:01:24.643Z,81
2023-03-26T06:02:25.886Z,80.9
2023-03-26T06:03:27.533Z,80.8
2023-03-26T06:04:28.936Z,80.7
2023-03-26T06:05:30.197Z,80.6
2023-03-26T06:06:33.885Z,80.5
2023-03-26T06:07:35.049Z,80.5
2023-03-26T06:08:36.213Z,80.5
2023-03-26T06:09:37.414Z,80.4
2023-03-26T06:10:38.583Z,80.4
2023-03-26T06:11:39.893Z,80.4
2023-03-26T06:12:41.083Z,80.3
2023-03-26T06:13:42.249Z,80.3
2023-03-26T06:14:43.467Z,80.2
2023-03-26T06:15:44.499Z,80.2
2023-03-26T06:16:45.476Z,80.2
2023-03-26T06:17:46.638Z,80.2
2023-03-26T06:18:57.436Z,80.1
2023-03-26T06:19:58.873Z,80.1
2023-03-26T06:20:59.891Z,80.1
2023-03-26T06:22:01.061Z,80
2023-03-26T06:23:02.220Z,79.9
2023-03-26T06:24:03.225Z,79.9
2023-03-26T06:25:04.392Z,79.8
2023-03-26T06:26:05.560Z,79.7
2023-03-26T06:27:06.535Z,79.7
2023-03-26T06:28:07.720Z,79.7
2023-03-26T06:29:08.861Z,79.7
2023-03-26T06:30:10.022Z,79.6
2023-03-26T06:31:11.330Z,79.5
2023-03-26T06:32:21.051Z,79.5
2023-03-26T06:33:24.983Z,79.5
2023-03-26T06:34:26.136Z,79.4
2023-03-26T06:35:27.306Z,79.3
2023-03-26T06:36:28.468Z,79.2
2023-03-26T06:37:29.661Z,79.1
2023-03-26T06:38:30.824Z,79
2023-03-26T06:39:32.017Z,79
2023-03-26T06:40:33.158Z,79
2023-03-26T06:41:34.326Z,79.1
2023-03-26T06:43:11.686Z,79.1
2023-03-26T06:44:12.824Z,79.1
2023-03-26T06:45:13.993Z,79.1
2023-03-26T06:46:15.161Z,79.1
2023-03-26T06:47:16.319Z,79.1
2023-03-26T06:48:17.482Z,79.1
2023-03-26T06:49:18.649Z,79
2023-03-26T06:50:19.817Z,79
2023-03-26T06:51:20.986Z,79
2023-03-26T06:52:22.145Z,79
2023-03-26T06:53:23.307Z,78.9
2023-03-26T06:54:24.285Z,78.9
2023-03-26T06:55:25.467Z,78.9
2023-03-26T06:56:26.412Z,78.8
2023-03-26T06:57:27.584Z,78.8
2023-03-26T06:58:28.764Z,78.7
2023-03-26T06:59:29.575Z,78.7
2023-03-26T07:00:30.738Z,78.6
2023-03-26T07:01:31.728Z,78.6
2023-03-26T07:02:32.839Z,78.5
2023-03-26T07:03:34.219Z,78.6
2023-03-26T07:04:35.238Z,78.6
2023-03-26T07:05:36.406Z,78.6
2023-03-26T07:06:37.574Z,78.6
2023-03-26T07:07:47.789Z,78.6
2023-03-26T07:08:48.939Z,78.6
2023-03-26T07:09:49.939Z,78.6
2023-03-26T07:10:51.138Z,78.5
2023-03-26T07:11:52.266Z,78.4
2023-03-26T07:12:53.428Z,78.3
2023-03-26T07:13:54.618Z,78.2
2023-03-26T07:14:56.404Z,78.1
2023-03-26T07:15:58.239Z,78
2023-03-26T07:16:59.316Z,77.9
2023-03-26T07:18:00.556Z,77.8
2023-03-26T07:19:01.714Z,77.7
2023-03-26T07:20:02.876Z,77.6
2023-03-26T07:21:04.047Z,77.2
2023-03-26T07:22:05.207Z,77.2
2023-03-26T07:23:06.369Z,77.1
2023-03-26T07:24:07.535Z,77.1
2023-03-26T07:25:08.776Z,77
2023-03-26T07:26:09.908Z,76.9
2023-03-26T07:27:10.915Z,76.8
2023-03-26T07:28:12.089Z,76.8
2023-03-26T07:29:13.170Z,76.7
2023-03-26T07:30:14.325Z,76.6
2023-03-26T07:31:15.466Z,76.6
2023-03-26T07:32:19.697Z,76.6
2023-03-26T07:33:21.134Z,76.7
2023-03-26T07:34:22.229Z,76.7
2023-03-26T07:35:23.412Z,76.8
2023-03-26T07:36:24.566Z,76.8
2023-03-26T07:37:25.732Z,76.8
2023-03-26T07:38:26.894Z,76.7
2023-03-26T07:39:28.817Z,76.7
2023-03-26T07:40:29.980Z,76.7
2023-03-26T07:41:31.143Z,76.7
2023-03-26T07:42:32.117Z,76.7
2023-03-26T07:43:33.287Z,76.6
2023-03-26T07:44:36.451Z,76.6
2023-03-26T07:45:37.579Z,76.6
2023-03-26T07:46:38.613Z,76.6
2023-03-26T07:47:39.813Z,76.6
2023-03-26T07:48:40.979Z,76.6
2023-03-26T07:49:42.141Z,76.5
2023-03-26T07:50:43.299Z,76.5
2023-03-26T07:51:44.465Z,76.4
2023-03-26T07:52:45.433Z,76.3
2023-03-26T07:53:46.413Z,76.2
2023-03-26T07:54:47.384Z,76.2
2023-03-26T07:55:48.540Z,76.1
2023-03-26T07:56:49.725Z,76.1
2023-03-26T07:57:50.970Z,76
2023-03-26T07:58:52.132Z,76
2023-03-26T07:59:53.524Z,75.9
2023-03-26T08:00:55.124Z,75.9
2023-03-26T08:01:56.761Z,75.9
2023-03-26T08:02:58.480Z,75.8
2023-03-26T08:04:26.556Z,75.8
2023-03-26T08:05:27.604Z,75.8
2023-03-26T08:06:28.646Z,75.7
2023-03-26T08:07:29.812Z,75.7
2023-03-26T08:08:31.214Z,75.6
2023-03-26T08:09:32.522Z,75.5
2023-03-26T08:10:33.686Z,75.4
2023-03-26T08:11:34.847Z,75.3
2023-03-26T08:12:36.008Z,75.2
2023-03-26T08:13:37.181Z,75.2
2023-03-26T08:14:38.210Z,75.1
2023-03-26T08:15:39.490Z,75
2023-03-26T08:16:40.637Z,75
2023-03-26T08:17:41.808Z,74.9
2023-03-26T08:18:42.961Z,74.8
2023-03-26T08:19:44.102Z,74.7
2023-03-26T08:20:45.243Z,74.6
2023-03-26T08:21:46.411Z,74.5
2023-03-26T08:22:47.377Z,74.5
2023-03-26T08:23:51.999Z,74.4
2023-03-26T08:24:53.177Z,74.4
2023-03-26T08:25:54.076Z,74.4
2023-03-26T08:26:55.246Z,74.3
2023-03-26T08:27:56.208Z,74.3
2023-03-26T08:28:57.178Z,74.1
2023-03-26T08:29:58.344Z,74
2023-03-26T08:30:59.203Z,73.9
2023-03-26T08:32:00.144Z,73.8
2023-03-26T08:33:01.361Z,73.7
2023-03-26T08:34:02.388Z,73.5
2023-03-26T08:35:03.561Z,73.3
2023-03-26T08:36:04.690Z,73.1
2023-03-26T08:37:05.629Z,73
2023-03-26T08:38:06.795Z,73
2023-03-26T08:39:07.960Z,73
2023-03-26T08:40:08.978Z,72.9
2023-03-26T08:41:10.147Z,72.9
2023-03-26T08:42:11.158Z,72.9
2023-03-26T08:43:12.323Z,72.9
2023-03-26T08:44:13.331Z,72.8
2023-03-26T08:45:14.498Z,72.7
2023-03-26T08:46:15.848Z,72.6
2023-03-26T08:47:17.001Z,72.5
2023-03-26T08:48:18.010Z,72.4
2023-03-26T08:49:19.194Z,72.3
2023-03-26T08:50:20.146Z,72.2
2023-03-26T08:51:21.313Z,72.1
2023-03-26T08:52:22.281Z,72
2023-03-26T08:53:23.261Z,71.7
2023-03-26T08:54:24.416Z,71.5
2023-03-26T08:55:25.586Z,71.3
2023-03-26T08:56:26.599Z,71.1
2023-03-26T08:57:27.768Z,70.9
2023-03-26T08:58:28.931Z,70.8
2023-03-26T08:59:30.097Z,70.7
2023-03-26T09:00:31.063Z,70.7
2023-03-26T09:01:32.250Z,70.6
2023-03-26T09:02:33.523Z,70.5
2023-03-26T09:03:34.606Z,70.5
2023-03-26T09:04:35.771Z,70.4
2023-03-26T09:05:36.747Z,70.5
2023-03-26T09:06:37.771Z,70.5
2023-03-26T09:07:38.740Z,70.3
2023-03-26T09:08:55.285Z,70.2
2023-03-26T09:09:56.297Z,70.1
2023-03-26T09:10:57.859Z,69.9
2023-03-26T09:11:59.023Z,69.6
2023-03-26T09:13:00.191Z,69.3
2023-03-26T09:14:01.018Z,69.1
2023-03-26T09:15:02.192Z,69.2
2023-03-26T09:16:03.370Z,69.3
2023-03-26T09:17:04.588Z,69.2
2023-03-26T09:18:05.842Z,69.2
2023-03-26T09:19:06.891Z,69.1
2023-03-26T09:20:08.058Z,69
2023-03-26T09:21:09.225Z,69
2023-03-26T09:22:10.207Z,68.8
2023-03-26T09:23:11.314Z,68.7
2023-03-26T09:24:12.764Z,68.5
2023-03-26T09:25:13.740Z,68.2
2023-03-26T09:26:14.900Z,68
2023-03-26T09:27:15.909Z,67.7
2023-03-26T09:28:17.078Z,67.6
2023-03-26T09:29:18.239Z,67.5
2023-03-26T09:30:19.251Z,67.5
2023-03-26T09:31:20.426Z,67.5
2023-03-26T09:32:21.511Z,67.4
2023-03-26T09:33:22.643Z,67.4
2023-03-26T09:34:23.614Z,66.9
2023-03-26T09:35:24.417Z,66.8
2023-03-26T09:36:25.249Z,66.7
2023-03-26T09:37:26.414Z,66.8
2023-03-26T09:38:27.577Z,67
2023-03-26T09:39:28.746Z,67
2023-03-26T09:40:29.902Z,66.9
2023-03-26T09:41:31.072Z,66.9
2023-03-26T09:42:32.235Z,66.8
2023-03-26T09:43:33.404Z,66.8
2023-03-26T09:44:34.375Z,66.9
2023-03-26T09:45:35.393Z,66.9
2023-03-26T09:46:36.477Z,66.9
2023-03-26T09:47:37.589Z,66.9
2023-03-26T09:48:38.534Z,67
2023-03-26T09:49:39.699Z,67
2023-03-26T09:50:40.667Z,67
2023-03-26T09:51:41.837Z,67
2023-03-26T09:52:43.001Z,67.1
2023-03-26T09:53:43.968Z,67.1
2023-03-26T09:54:45.273Z,67.1
2023-03-26T09:55:46.441Z,67.2
2023-03-26T09:56:47.266Z,67.2
2023-03-26T09:57:48.255Z,67.3
2023-03-26T09:58:49.269Z,67.4
2023-03-26T09:59:50.434Z,67.4
2023-03-26T10:00:51.612Z,67.4
2023-03-26T10:01:52.658Z,67.5
2023-03-26T10:02:53.876Z,67.5
2023-03-26T10:03:54.933Z,67.6
2023-03-26T10:04:56.244Z,67.6
2023-03-26T10:05:57.396Z,67.7
2023-03-26T10:06:58.563Z,67.7
2023-03-26T10:07:59.724Z,67.8
2023-03-26T10:09:00.701Z,67.9
2023-03-26T10:10:01.578Z,68.1
2023-03-26T10:11:02.735Z,68.3
2023-03-26T10:12:03.900Z,68.5
2023-03-26T10:13:15.519Z,68.6
2023-03-26T10:14:16.683Z,68.6
2023-03-26T10:15:17.849Z,68.6
2023-03-26T10:16:19.122Z,68.6
2023-03-26T10:17:20.295Z,68.6
2023-03-26T10:18:30.562Z,68.6
2023-03-26T10:19:31.500Z,68.7
2023-03-26T10:20:32.664Z,68.8
2023-03-26T10:21:33.828Z,68.9
2023-03-26T10:22:35.009Z,69
2023-03-26T10:23:35.840Z,69
2023-03-26T10:24:36.798Z,69
2023-03-26T10:25:37.963Z,69.1
2023-03-26T10:26:39.142Z,69.2
2023-03-26T10:27:40.173Z,69.3
2023-03-26T10:28:41.198Z,69.2
2023-03-26T10:29:42.389Z,69
2023-03-26T10:30:43.223Z,69
2023-03-26T10:31:44.376Z,69
2023-03-26T10:32:45.490Z,69
2023-03-26T10:33:46.438Z,68.9
2023-03-26T10:34:47.576Z,68.8
2023-03-26T10:35:48.777Z,68.8
2023-03-26T10:36:49.922Z,68.8
2023-03-26T10:37:51.084Z,68.7
2023-03-26T10:38:52.059Z,68.6
2023-03-26T10:39:53.228Z,68.6
2023-03-26T10:40:55.227Z,68.5
2023-03-26T10:41:56.531Z,68.4
2023-03-26T10:42:57.696Z,68.3
2023-03-26T10:44:09.578Z,68.2
2023-03-26T10:45:10.559Z,68.2
2023-03-26T10:46:11.976Z,68.1
2023-03-26T10:47:13.124Z,68.1
2023-03-26T10:48:14.296Z,68.1
2023-03-26T10:49:15.391Z,68.1
2023-03-26T10:50:24.288Z,68
2023-03-26T10:51:25.571Z,68
2023-03-26T10:52:26.737Z,68
2023-03-26T10:53:27.677Z,68
2023-03-26T10:54:28.803Z,67.8
2023-03-26T10:55:30.095Z,67.6
2023-03-26T10:56:31.319Z,67.6
2023-03-26T10:57:32.495Z,67.6
2023-03-26T10:58:51.046Z,67.6
2023-03-26T10:59:52.210Z,67.4
2023-03-26T11:00:54.089Z,67.1
2023-03-26T11:01:55.607Z,66.7
2023-03-26T11:02:56.954Z,66.6
2023-03-26T11:03:58.119Z,66.6
2023-03-26T11:04:59.122Z,66.6
2023-03-26T11:06:00.667Z,66.5
2023-03-26T11:07:05.283Z,66.2
2023-03-26T11:08:06.421Z,66
2023-03-26T11:09:07.591Z,65.6
2023-03-26T11:10:08.867Z,65.5
2023-03-26T11:11:10.034Z,65.3
2023-03-26T11:12:28.835Z,65.1
2023-03-26T11:13:29.876Z,64.8
2023-03-26T11:14:35.915Z,64.6
2023-03-26T11:15:37.057Z,64.5
2023-03-26T11:16:38.227Z,64.3
2023-03-26T11:17:41.998Z,64.1
2023-03-26T11:18:43.156Z,63.9
2023-03-26T11:19:44.161Z,63.8
2023-03-26T11:20:45.387Z,63.8
2023-03-26T11:21:46.570Z,63.9
2023-03-26T11:22:47.733Z,63.8
2023-03-26T11:24:06.637Z,63.6
2023-03-26T11:25:07.580Z,63.6
2023-03-26T11:26:08.756Z,63.5
2023-03-26T11:27:19.758Z,63.4
2023-03-26T11:28:21.946Z,63.4
2023-03-26T11:34:37.392Z,63.5
2023-03-26T11:35:42.020Z,63.8
2023-03-26T11:36:43.021Z,63.7
2023-03-26T11:37:44.171Z,63.6
2023-03-26T11:38:45.329Z,63.6
2023-03-26T11:39:46.495Z,63.5
2023-03-26T11:40:47.471Z,63.4
2023-03-26T11:41:48.490Z,63.2
2023-03-26T11:42:49.701Z,63.1
2023-03-26T11:43:50.829Z,63.1
2023-03-26T11:44:51.992Z,63.1
2023-03-26T11:45:53.160Z,63.2
2023-03-26T11:46:54.505Z,63.2
2023-03-26T11:47:55.577Z,63.2
2023-03-26T11:48:56.811Z,63.3
2023-03-26T11:49:57.779Z,63.3
2023-03-26T11:50:58.947Z,63.4
2023-03-26T11:52:00.135Z,63.5
2023-03-26T11:53:01.277Z,63.5
2023-03-26T11:54:02.444Z,63.5
2023-03-26T11:55:03.621Z,63.5
2023-03-26T11:56:04.657Z,63.5
2023-03-26T11:57:08.186Z,63.5
2023-03-26T11:58:11.653Z,63.5
2023-03-26T11:59:12.679Z,63.5
2023-03-26T12:00:13.843Z,63.6
2023-03-26T12:01:15.011Z,63.8
2023-03-26T12:02:16.109Z,63.9
2023-03-26T12:03:17.106Z,64.1
2023-03-26T12:04:18.365Z,64.3
2023-03-26T12:05:19.380Z,64.4
2023-03-26T12:06:20.544Z,64.5
2023-03-26T12:07:21.541Z,64.7
2023-03-26T12:08:22.676Z,64.8
2023-03-26T12:09:23.842Z,64.8
2023-03-26T12:10:25.019Z,64.8
2023-03-26T12:11:26.169Z,64.8
2023-03-26T12:12:27.361Z,64.8
2023-03-26T12:13:28.506Z,64.9
2023-03-26T12:14:29.545Z,65
2023-03-26T12:15:30.695Z,65
2023-03-26T12:16:31.911Z,65.1
2023-03-26T12:17:32.975Z,65.2
2023-03-26T12:18:34.120Z,65.3
2023-03-26T12:19:35.280Z,65.4
2023-03-26T12:20:36.451Z,65.4
2023-03-26T12:21:37.618Z,65.5
2023-03-26T12:22:38.808Z,65.5
2023-03-26T12:23:39.755Z,65.6
2023-03-26T12:24:40.958Z,65.6
2023-03-26T12:25:42.088Z,65.6
2023-03-26T12:26:43.251Z,65.6
2023-03-26T12:27:44.427Z,65.7
2023-03-26T12:28:45.391Z,65.8
2023-03-26T12:29:46.555Z,65.8
2023-03-26T12:30:47.722Z,65.9
2023-03-26T12:31:48.967Z,65.9
2023-03-26T12:32:54.278Z,65.9
2023-03-26T12:33:56.989Z,65.9
2023-03-26T12:34:59.276Z,65.9
2023-03-26T12:36:00.648Z,65.9
2023-03-26T12:37:01.770Z,66.1
2023-03-26T12:38:02.822Z,66.2
2023-03-26T12:40:16.137Z,66.4
2023-03-26T12:45:00.426Z,66.5
2023-03-26T12:48:04.718Z,67.4
2023-03-26T12:49:06.009Z,67.9
2023-03-26T12:50:07.156Z,67.9
2023-03-26T12:51:08.232Z,68
2023-03-26T12:52:10.240Z,68
2023-03-26T12:53:11.436Z,68
2023-03-26T12:54:12.571Z,68.1
2023-03-26T12:55:13.782Z,68.2
2023-03-26T12:56:14.914Z,68.4
2023-03-26T12:57:15.751Z,68.5
2023-03-26T12:58:16.894Z,68.7
2023-03-26T12:59:17.860Z,68.9
2023-03-26T13:00:19.034Z,69.2
2023-03-26T13:01:20.041Z,69.5
2023-03-26T13:02:21.335Z,69.8
2023-03-26T13:03:22.758Z,70.1
2023-03-26T13:04:23.916Z,70.6
2023-03-26T13:05:25.098Z,71
2023-03-26T13:06:26.265Z,71.4
2023-03-26T13:07:27.430Z,71.7
2023-03-26T13:08:28.429Z,72.1
2023-03-26T13:09:29.370Z,72.3
2023-03-26T13:10:30.381Z,72.7
2023-03-26T13:11:31.205Z,73
2023-03-26T13:12:32.178Z,73.3
2023-03-26T13:13:33.342Z,73.5
2023-03-26T13:14:34.361Z,73.6
2023-03-26T13:15:35.342Z,73.6
2023-03-26T13:16:36.576Z,73.7
2023-03-26T13:17:38.603Z,73.7
2023-03-26T13:18:39.653Z,73.7
2023-03-26T13:19:40.802Z,73.7
2023-03-26T13:20:41.981Z,73.8
2023-03-26T13:21:42.931Z,73.8
2023-03-26T13:22:44.103Z,73.8
2023-03-26T13:23:45.309Z,73.8
2023-03-26T13:24:46.350Z,73.8
2023-03-26T13:25:47.509Z,73.9
2023-03-26T13:26:48.678Z,73.9
2023-03-26T13:27:49.662Z,73.8
2023-03-26T13:28:50.676Z,73.8
2023-03-26T13:29:51.840Z,73.8
2023-03-26T13:30:53.388Z,73.8
2023-03-26T13:31:54.657Z,73.8
2023-03-26T13:32:55.666Z,73.8
2023-03-26T13:33:56.720Z,73.8
2023-03-26T13:34:57.501Z,73.7
2023-03-26T13:36:24.650Z,73.7
2023-03-26T13:37:26.030Z,73.6
2023-03-26T13:38:27.196Z,73.7
2023-03-26T13:39:28.317Z,73.7
2023-03-26T13:40:29.337Z,73.7
2023-03-26T13:41:30.504Z,73.7
2023-03-26T13:42:31.472Z,73.8
2023-03-26T13:43:32.738Z,73.9
2023-03-26T13:44:33.899Z,73.9
2023-03-26T13:45:35.072Z,73.9
2023-03-26T13:46:36.505Z,74
2023-03-26T13:47:37.832Z,74.3
2023-03-26T13:48:38.988Z,74.5
2023-03-26T13:49:40.158Z,74.7
2023-03-26T13:50:41.357Z,74.9
2023-03-26T13:51:42.303Z,75
2023-03-26T13:52:43.466Z,75.2
2023-03-26T13:53:44.647Z,75.3
2023-03-26T13:54:45.629Z,75.4
2023-03-26T13:55:46.769Z,75.4
2023-03-26T13:56:47.966Z,75.4